<?xml version="1.0" encoding="UTF-8" standalone="no" ?>
<gpx xmlns="http://www.topografix.com/GPX/1/1" xmlns:xsi="http://www.w3.org/2001/XMLSchema-instance" xsi:schemaLocation="http://www.topografix.com/GPX/1/1 http://www.topografix.com/GPX/1/1/gpx.xsd" version="1.1" creator="VisuGPX - https://www.visugpx.com">
  <metadata>
    <name>massif du montaiguet (-13- Luynes)</name>
    <desc><![CDATA[luynes/valabre/luynes
Beau parcours en forêt et sous-bois.]]></desc>
  </metadata>
  <trk>
    <name><![CDATA[massif du montaiguet (-13- Luynes)_1]]></name>
    <trkseg>
      <trkpt lat="43.48922" lon="5.43062">
        <ele>212.969421</ele>
        <time>2011-11-27T08:31:56Z</time>
      </trkpt>
      <trkpt lat="43.48933" lon="5.43292">
        <ele>164.969971</ele>
        <time>2011-11-27T08:35:37Z</time>
      </trkpt>
      <trkpt lat="43.49613" lon="5.44">
        <ele>164.973114</ele>
        <time>2011-11-27T08:39:29Z</time>
      </trkpt>
      <trkpt lat="43.4962" lon="5.44005">
        <ele>164.973145</ele>
        <time>2011-11-27T08:39:30Z</time>
      </trkpt>
      <trkpt lat="43.49628" lon="5.4401">
        <ele>164.973175</ele>
        <time>2011-11-27T08:39:31Z</time>
      </trkpt>
      <trkpt lat="43.49634" lon="5.44015">
        <ele>163.973206</ele>
        <time>2011-11-27T08:39:32Z</time>
      </trkpt>
      <trkpt lat="43.4964" lon="5.44019">
        <ele>163.973221</ele>
        <time>2011-11-27T08:39:33Z</time>
      </trkpt>
      <trkpt lat="43.49647" lon="5.44023">
        <ele>163.973236</ele>
        <time>2011-11-27T08:39:34Z</time>
      </trkpt>
      <trkpt lat="43.49652" lon="5.44027">
        <ele>163.973267</ele>
        <time>2011-11-27T08:39:35Z</time>
      </trkpt>
      <trkpt lat="43.49659" lon="5.44032">
        <ele>163.973297</ele>
        <time>2011-11-27T08:39:36Z</time>
      </trkpt>
      <trkpt lat="43.49665" lon="5.44035">
        <ele>164.973312</ele>
        <time>2011-11-27T08:39:37Z</time>
      </trkpt>
      <trkpt lat="43.49672" lon="5.44038">
        <ele>164.973343</ele>
        <time>2011-11-27T08:39:38Z</time>
      </trkpt>
      <trkpt lat="43.49678" lon="5.44042">
        <ele>164.973358</ele>
        <time>2011-11-27T08:39:39Z</time>
      </trkpt>
      <trkpt lat="43.49684" lon="5.44046">
        <ele>164.973389</ele>
        <time>2011-11-27T08:39:40Z</time>
      </trkpt>
      <trkpt lat="43.4969" lon="5.44049">
        <ele>164.973404</ele>
        <time>2011-11-27T08:39:41Z</time>
      </trkpt>
      <trkpt lat="43.49695" lon="5.44052">
        <ele>164.973419</ele>
        <time>2011-11-27T08:39:42Z</time>
      </trkpt>
      <trkpt lat="43.49694" lon="5.44049">
        <ele>164.973419</ele>
        <time>2011-11-27T08:39:43Z</time>
      </trkpt>
      <trkpt lat="43.49702" lon="5.44052">
        <ele>164.97345</ele>
        <time>2011-11-27T08:39:45Z</time>
      </trkpt>
      <trkpt lat="43.49703" lon="5.44052">
        <ele>164.97345</ele>
        <time>2011-11-27T08:39:46Z</time>
      </trkpt>
      <trkpt lat="43.49712" lon="5.44056">
        <ele>165.973465</ele>
        <time>2011-11-27T08:39:47Z</time>
      </trkpt>
      <trkpt lat="43.49713" lon="5.44056">
        <ele>165.97348</ele>
        <time>2011-11-27T08:39:48Z</time>
      </trkpt>
      <trkpt lat="43.4972" lon="5.44059">
        <ele>165.973495</ele>
        <time>2011-11-27T08:39:49Z</time>
      </trkpt>
      <trkpt lat="43.49723" lon="5.44061">
        <ele>165.973511</ele>
        <time>2011-11-27T08:39:50Z</time>
      </trkpt>
      <trkpt lat="43.49727" lon="5.44061">
        <ele>166.973511</ele>
        <time>2011-11-27T08:39:51Z</time>
      </trkpt>
      <trkpt lat="43.4973" lon="5.44063">
        <ele>166.973526</ele>
        <time>2011-11-27T08:39:52Z</time>
      </trkpt>
      <trkpt lat="43.49733" lon="5.44064">
        <ele>166.973541</ele>
        <time>2011-11-27T08:39:53Z</time>
      </trkpt>
      <trkpt lat="43.49735" lon="5.44065">
        <ele>166.973541</ele>
        <time>2011-11-27T08:39:54Z</time>
      </trkpt>
      <trkpt lat="43.49738" lon="5.44067">
        <ele>166.973557</ele>
        <time>2011-11-27T08:39:55Z</time>
      </trkpt>
      <trkpt lat="43.4974" lon="5.44068">
        <ele>167.973572</ele>
        <time>2011-11-27T08:39:56Z</time>
      </trkpt>
      <trkpt lat="43.49742" lon="5.4407">
        <ele>167.973572</ele>
        <time>2011-11-27T08:39:57Z</time>
      </trkpt>
      <trkpt lat="43.4974" lon="5.44068">
        <ele>168.973557</ele>
        <time>2011-11-27T08:39:58Z</time>
      </trkpt>
      <trkpt lat="43.49708" lon="5.44066">
        <ele>171.97348</ele>
        <time>2011-11-27T08:40:14Z</time>
      </trkpt>
      <trkpt lat="43.49679" lon="5.44074">
        <ele>174.973434</ele>
        <time>2011-11-27T08:40:23Z</time>
      </trkpt>
      <trkpt lat="43.49669" lon="5.44078">
        <ele>175.973419</ele>
        <time>2011-11-27T08:40:26Z</time>
      </trkpt>
      <trkpt lat="43.4966" lon="5.44086">
        <ele>176.973419</ele>
        <time>2011-11-27T08:40:30Z</time>
      </trkpt>
      <trkpt lat="43.4965" lon="5.44095">
        <ele>176.973419</ele>
        <time>2011-11-27T08:40:34Z</time>
      </trkpt>
      <trkpt lat="43.49636" lon="5.44118">
        <ele>176.97345</ele>
        <time>2011-11-27T08:40:43Z</time>
      </trkpt>
      <trkpt lat="43.49621" lon="5.44154">
        <ele>179.97348</ele>
        <time>2011-11-27T08:40:55Z</time>
      </trkpt>
      <trkpt lat="43.49604" lon="5.44179">
        <ele>180.973495</ele>
        <time>2011-11-27T08:41:03Z</time>
      </trkpt>
      <trkpt lat="43.49576" lon="5.4418">
        <ele>186.97345</ele>
        <time>2011-11-27T08:41:23Z</time>
      </trkpt>
      <trkpt lat="43.49567" lon="5.44173">
        <ele>188.973404</ele>
        <time>2011-11-27T08:41:28Z</time>
      </trkpt>
      <trkpt lat="43.49537" lon="5.44165">
        <ele>191.973312</ele>
        <time>2011-11-27T08:41:39Z</time>
      </trkpt>
      <trkpt lat="43.49516" lon="5.4416">
        <ele>191.973267</ele>
        <time>2011-11-27T08:41:42Z</time>
      </trkpt>
      <trkpt lat="43.49507" lon="5.44158">
        <ele>191.973236</ele>
        <time>2011-11-27T08:41:44Z</time>
      </trkpt>
      <trkpt lat="43.49498" lon="5.44156">
        <ele>191.973206</ele>
        <time>2011-11-27T08:41:47Z</time>
      </trkpt>
      <trkpt lat="43.49488" lon="5.44155">
        <ele>192.973175</ele>
        <time>2011-11-27T08:41:50Z</time>
      </trkpt>
      <trkpt lat="43.49447" lon="5.44157">
        <ele>195.973099</ele>
        <time>2011-11-27T08:42:19Z</time>
      </trkpt>
      <trkpt lat="43.49419" lon="5.44159">
        <ele>196.973038</ele>
        <time>2011-11-27T08:42:27Z</time>
      </trkpt>
      <trkpt lat="43.49391" lon="5.44159">
        <ele>196.972961</ele>
        <time>2011-11-27T08:42:35Z</time>
      </trkpt>
      <trkpt lat="43.4916" lon="5.44522">
        <ele>168.973267</ele>
        <time>2011-11-27T08:46:05Z</time>
      </trkpt>
      <trkpt lat="43.49139" lon="5.44548">
        <ele>194.973267</ele>
        <time>2011-11-27T08:46:19Z</time>
      </trkpt>
      <trkpt lat="43.49123" lon="5.44581">
        <ele>197.973297</ele>
        <time>2011-11-27T08:46:35Z</time>
      </trkpt>
      <trkpt lat="43.49117" lon="5.44598">
        <ele>200.973328</ele>
        <time>2011-11-27T08:46:45Z</time>
      </trkpt>
      <trkpt lat="43.4911" lon="5.44608">
        <ele>202.973343</ele>
        <time>2011-11-27T08:46:51Z</time>
      </trkpt>
      <trkpt lat="43.4911" lon="5.4461">
        <ele>202.973343</ele>
        <time>2011-11-27T08:46:52Z</time>
      </trkpt>
      <trkpt lat="43.49108" lon="5.44617">
        <ele>202.973358</ele>
        <time>2011-11-27T08:46:57Z</time>
      </trkpt>
      <trkpt lat="43.49108" lon="5.44618">
        <ele>202.973358</ele>
        <time>2011-11-27T08:46:58Z</time>
      </trkpt>
      <trkpt lat="43.49108" lon="5.4462">
        <ele>202.973358</ele>
        <time>2011-11-27T08:46:59Z</time>
      </trkpt>
      <trkpt lat="43.49106" lon="5.44625">
        <ele>202.973373</ele>
        <time>2011-11-27T08:47:01Z</time>
      </trkpt>
      <trkpt lat="43.49106" lon="5.44628">
        <ele>202.973373</ele>
        <time>2011-11-27T08:47:02Z</time>
      </trkpt>
      <trkpt lat="43.49102" lon="5.44638">
        <ele>203.973389</ele>
        <time>2011-11-27T08:47:06Z</time>
      </trkpt>
      <trkpt lat="43.49102" lon="5.4464">
        <ele>203.973389</ele>
        <time>2011-11-27T08:47:07Z</time>
      </trkpt>
      <trkpt lat="43.49098" lon="5.44648">
        <ele>204.973404</ele>
        <time>2011-11-27T08:47:12Z</time>
      </trkpt>
      <trkpt lat="43.49097" lon="5.4465">
        <ele>204.973404</ele>
        <time>2011-11-27T08:47:13Z</time>
      </trkpt>
      <trkpt lat="43.49096" lon="5.44652">
        <ele>204.973404</ele>
        <time>2011-11-27T08:47:14Z</time>
      </trkpt>
      <trkpt lat="43.49091" lon="5.44662">
        <ele>205.973419</ele>
        <time>2011-11-27T08:47:20Z</time>
      </trkpt>
      <trkpt lat="43.4909" lon="5.44664">
        <ele>205.973419</ele>
        <time>2011-11-27T08:47:21Z</time>
      </trkpt>
      <trkpt lat="43.49089" lon="5.44666">
        <ele>205.973419</ele>
        <time>2011-11-27T08:47:22Z</time>
      </trkpt>
      <trkpt lat="43.49083" lon="5.44674">
        <ele>205.973419</ele>
        <time>2011-11-27T08:47:27Z</time>
      </trkpt>
      <trkpt lat="43.4908" lon="5.44678">
        <ele>205.973434</ele>
        <time>2011-11-27T08:47:29Z</time>
      </trkpt>
      <trkpt lat="43.49078" lon="5.44681">
        <ele>205.973434</ele>
        <time>2011-11-27T08:47:30Z</time>
      </trkpt>
      <trkpt lat="43.49071" lon="5.44691">
        <ele>206.973434</ele>
        <time>2011-11-27T08:47:35Z</time>
      </trkpt>
      <trkpt lat="43.49066" lon="5.44697">
        <ele>207.973434</ele>
        <time>2011-11-27T08:47:39Z</time>
      </trkpt>
      <trkpt lat="43.49065" lon="5.44699">
        <ele>207.97345</ele>
        <time>2011-11-27T08:47:40Z</time>
      </trkpt>
      <trkpt lat="43.49063" lon="5.44699">
        <ele>207.973434</ele>
        <time>2011-11-27T08:47:41Z</time>
      </trkpt>
      <trkpt lat="43.49061" lon="5.447">
        <ele>207.97345</ele>
        <time>2011-11-27T08:47:42Z</time>
      </trkpt>
      <trkpt lat="43.4906" lon="5.44701">
        <ele>207.973434</ele>
        <time>2011-11-27T08:47:43Z</time>
      </trkpt>
      <trkpt lat="43.47763" lon="5.45155">
        <ele>245.971512</ele>
        <time>2011-11-27T09:08:10Z</time>
      </trkpt>
      <trkpt lat="43.4777" lon="5.45146">
        <ele>249.971497</ele>
        <time>2011-11-27T09:08:16Z</time>
      </trkpt>
      <trkpt lat="43.47777" lon="5.45136">
        <ele>251.971497</ele>
        <time>2011-11-27T09:08:23Z</time>
      </trkpt>
      <trkpt lat="43.47789" lon="5.45114">
        <ele>260.971466</ele>
        <time>2011-11-27T09:08:37Z</time>
      </trkpt>
      <trkpt lat="43.4779" lon="5.45111">
        <ele>260.971466</ele>
        <time>2011-11-27T09:08:38Z</time>
      </trkpt>
      <trkpt lat="43.47803" lon="5.4506">
        <ele>267.971375</ele>
        <time>2011-11-27T09:09:06Z</time>
      </trkpt>
      <trkpt lat="43.47809" lon="5.45017">
        <ele>267.971313</ele>
        <time>2011-11-27T09:09:21Z</time>
      </trkpt>
      <trkpt lat="43.47784" lon="5.45">
        <ele>267.971191</ele>
        <time>2011-11-27T09:09:47Z</time>
      </trkpt>
      <trkpt lat="43.47758" lon="5.44991">
        <ele>267.97113</ele>
        <time>2011-11-27T09:10:00Z</time>
      </trkpt>
      <trkpt lat="43.47729" lon="5.44988">
        <ele>267.971069</ele>
        <time>2011-11-27T09:10:15Z</time>
      </trkpt>
      <trkpt lat="43.47705" lon="5.4497">
        <ele>268.970947</ele>
        <time>2011-11-27T09:10:27Z</time>
      </trkpt>
      <trkpt lat="43.46609" lon="5.4426">
        <ele>139.966858</ele>
        <time>2011-11-27T09:43:50Z</time>
      </trkpt>
      <trkpt lat="43.46632" lon="5.44283">
        <ele>171.966965</ele>
        <time>2011-11-27T09:44:06Z</time>
      </trkpt>
      <trkpt lat="43.46638" lon="5.44312">
        <ele>170.967041</ele>
        <time>2011-11-27T09:44:32Z</time>
      </trkpt>
      <trkpt lat="43.46638" lon="5.44312">
        <ele>170.967041</ele>
        <time>2011-11-27T09:44:33Z</time>
      </trkpt>
      <trkpt lat="43.46635" lon="5.44314">
        <ele>171.967041</ele>
        <time>2011-11-27T09:44:34Z</time>
      </trkpt>
      <trkpt lat="43.46502" lon="5.44354">
        <ele>184.966827</ele>
        <time>2011-11-27T09:45:38Z</time>
      </trkpt>
      <trkpt lat="43.46499" lon="5.44354">
        <ele>185.966827</ele>
        <time>2011-11-27T09:45:39Z</time>
      </trkpt>
      <trkpt lat="43.46494" lon="5.44355">
        <ele>188.966812</ele>
        <time>2011-11-27T09:45:43Z</time>
      </trkpt>
      <trkpt lat="43.46493" lon="5.44355">
        <ele>189.966812</ele>
        <time>2011-11-27T09:45:44Z</time>
      </trkpt>
      <trkpt lat="43.46489" lon="5.44357">
        <ele>191.966797</ele>
        <time>2011-11-27T09:45:47Z</time>
      </trkpt>
      <trkpt lat="43.46488" lon="5.44357">
        <ele>191.966797</ele>
        <time>2011-11-27T09:45:48Z</time>
      </trkpt>
      <trkpt lat="43.46487" lon="5.44357">
        <ele>191.966797</ele>
        <time>2011-11-27T09:45:49Z</time>
      </trkpt>
      <trkpt lat="43.46486" lon="5.44358">
        <ele>191.966797</ele>
        <time>2011-11-27T09:45:50Z</time>
      </trkpt>
      <trkpt lat="43.46485" lon="5.44358">
        <ele>192.966797</ele>
        <time>2011-11-27T09:45:51Z</time>
      </trkpt>
      <trkpt lat="43.4648" lon="5.4436">
        <ele>193.966797</ele>
        <time>2011-11-27T09:45:56Z</time>
      </trkpt>
      <trkpt lat="43.46479" lon="5.44361">
        <ele>193.966797</ele>
        <time>2011-11-27T09:45:57Z</time>
      </trkpt>
      <trkpt lat="43.46478" lon="5.44361">
        <ele>194.966797</ele>
        <time>2011-11-27T09:45:58Z</time>
      </trkpt>
      <trkpt lat="43.46477" lon="5.44361">
        <ele>194.966782</ele>
        <time>2011-11-27T09:45:59Z</time>
      </trkpt>
      <trkpt lat="43.46476" lon="5.44361">
        <ele>194.966782</ele>
        <time>2011-11-27T09:46:00Z</time>
      </trkpt>
      <trkpt lat="43.46475" lon="5.44362">
        <ele>194.966782</ele>
        <time>2011-11-27T09:46:02Z</time>
      </trkpt>
      <trkpt lat="43.46474" lon="5.44362">
        <ele>194.966782</ele>
        <time>2011-11-27T09:46:03Z</time>
      </trkpt>
      <trkpt lat="43.46474" lon="5.44362">
        <ele>194.966782</ele>
        <time>2011-11-27T09:46:04Z</time>
      </trkpt>
      <trkpt lat="43.46472" lon="5.44363">
        <ele>194.966782</ele>
        <time>2011-11-27T09:46:05Z</time>
      </trkpt>
      <trkpt lat="43.46471" lon="5.44363">
        <ele>194.966782</ele>
        <time>2011-11-27T09:46:06Z</time>
      </trkpt>
      <trkpt lat="43.4647" lon="5.44363">
        <ele>195.966766</ele>
        <time>2011-11-27T09:46:07Z</time>
      </trkpt>
      <trkpt lat="43.46319" lon="5.44454">
        <ele>202.966644</ele>
        <time>2011-11-27T09:47:42Z</time>
      </trkpt>
      <trkpt lat="43.45934" lon="5.44765">
        <ele>296.966461</ele>
        <time>2011-11-27T10:25:33Z</time>
      </trkpt>
      <trkpt lat="43.4591" lon="5.44746">
        <ele>287.96637</ele>
        <time>2011-11-27T10:25:45Z</time>
      </trkpt>
      <trkpt lat="43.45878" lon="5.44737">
        <ele>285.966278</ele>
        <time>2011-11-27T10:25:55Z</time>
      </trkpt>
      <trkpt lat="43.45874" lon="5.44729">
        <ele>285.966248</ele>
        <time>2011-11-27T10:25:58Z</time>
      </trkpt>
      <trkpt lat="43.45873" lon="5.44726">
        <ele>286.966248</ele>
        <time>2011-11-27T10:25:59Z</time>
      </trkpt>
      <trkpt lat="43.45873" lon="5.44724">
        <ele>286.966248</ele>
        <time>2011-11-27T10:26:00Z</time>
      </trkpt>
      <trkpt lat="43.45873" lon="5.44721">
        <ele>286.966248</ele>
        <time>2011-11-27T10:26:01Z</time>
      </trkpt>
      <trkpt lat="43.4587" lon="5.44697">
        <ele>288.966156</ele>
        <time>2011-11-27T10:26:10Z</time>
      </trkpt>
      <trkpt lat="43.47246" lon="5.44076">
        <ele>173.967896</ele>
        <time>2011-11-27T10:33:26Z</time>
      </trkpt>
      <trkpt lat="43.47248" lon="5.44067">
        <ele>173.96788</ele>
        <time>2011-11-27T10:33:27Z</time>
      </trkpt>
      <trkpt lat="43.4725" lon="5.44061">
        <ele>173.967865</ele>
        <time>2011-11-27T10:33:28Z</time>
      </trkpt>
      <trkpt lat="43.47251" lon="5.44057">
        <ele>173.967865</ele>
        <time>2011-11-27T10:33:29Z</time>
      </trkpt>
      <trkpt lat="43.47254" lon="5.44047">
        <ele>173.967834</ele>
        <time>2011-11-27T10:33:30Z</time>
      </trkpt>
      <trkpt lat="43.47256" lon="5.44041">
        <ele>173.967834</ele>
        <time>2011-11-27T10:33:31Z</time>
      </trkpt>
      <trkpt lat="43.47258" lon="5.44034">
        <ele>174.967834</ele>
        <time>2011-11-27T10:33:32Z</time>
      </trkpt>
      <trkpt lat="43.47261" lon="5.44027">
        <ele>174.967819</ele>
        <time>2011-11-27T10:33:33Z</time>
      </trkpt>
      <trkpt lat="43.47265" lon="5.44019">
        <ele>175.967804</ele>
        <time>2011-11-27T10:33:34Z</time>
      </trkpt>
      <trkpt lat="43.47267" lon="5.44011">
        <ele>175.967804</ele>
        <time>2011-11-27T10:33:35Z</time>
      </trkpt>
      <trkpt lat="43.47271" lon="5.44003">
        <ele>176.967773</ele>
        <time>2011-11-27T10:33:36Z</time>
      </trkpt>
      <trkpt lat="43.47274" lon="5.43996">
        <ele>177.967773</ele>
        <time>2011-11-27T10:33:37Z</time>
      </trkpt>
      <trkpt lat="43.47277" lon="5.43988">
        <ele>177.967773</ele>
        <time>2011-11-27T10:33:38Z</time>
      </trkpt>
      <trkpt lat="43.4728" lon="5.43981">
        <ele>178.967758</ele>
        <time>2011-11-27T10:33:39Z</time>
      </trkpt>
      <trkpt lat="43.47283" lon="5.43975">
        <ele>178.967743</ele>
        <time>2011-11-27T10:33:40Z</time>
      </trkpt>
      <trkpt lat="43.47285" lon="5.43969">
        <ele>178.967743</ele>
        <time>2011-11-27T10:33:41Z</time>
      </trkpt>
      <trkpt lat="43.47288" lon="5.43963">
        <ele>178.967728</ele>
        <time>2011-11-27T10:33:42Z</time>
      </trkpt>
      <trkpt lat="43.4729" lon="5.43957">
        <ele>178.967712</ele>
        <time>2011-11-27T10:33:43Z</time>
      </trkpt>
      <trkpt lat="43.47292" lon="5.43951">
        <ele>178.967712</ele>
        <time>2011-11-27T10:33:44Z</time>
      </trkpt>
      <trkpt lat="43.47294" lon="5.43945">
        <ele>178.967712</ele>
        <time>2011-11-27T10:33:45Z</time>
      </trkpt>
      <trkpt lat="43.47296" lon="5.43939">
        <ele>178.967697</ele>
        <time>2011-11-27T10:33:46Z</time>
      </trkpt>
      <trkpt lat="43.47297" lon="5.43934">
        <ele>178.967682</ele>
        <time>2011-11-27T10:33:47Z</time>
      </trkpt>
      <trkpt lat="43.47299" lon="5.43929">
        <ele>178.967682</ele>
        <time>2011-11-27T10:33:48Z</time>
      </trkpt>
      <trkpt lat="43.473" lon="5.43923">
        <ele>179.967667</ele>
        <time>2011-11-27T10:33:49Z</time>
      </trkpt>
      <trkpt lat="43.47302" lon="5.43918">
        <ele>179.967667</ele>
        <time>2011-11-27T10:33:50Z</time>
      </trkpt>
      <trkpt lat="43.47303" lon="5.43914">
        <ele>179.967651</ele>
        <time>2011-11-27T10:33:51Z</time>
      </trkpt>
      <trkpt lat="43.47304" lon="5.43909">
        <ele>180.967651</ele>
        <time>2011-11-27T10:33:52Z</time>
      </trkpt>
      <trkpt lat="43.47306" lon="5.43903">
        <ele>180.967636</ele>
        <time>2011-11-27T10:33:53Z</time>
      </trkpt>
      <trkpt lat="43.47307" lon="5.43898">
        <ele>181.967621</ele>
        <time>2011-11-27T10:33:54Z</time>
      </trkpt>
      <trkpt lat="43.47308" lon="5.43893">
        <ele>181.967621</ele>
        <time>2011-11-27T10:33:55Z</time>
      </trkpt>
      <trkpt lat="43.4731" lon="5.43888">
        <ele>182.967621</ele>
        <time>2011-11-27T10:33:56Z</time>
      </trkpt>
      <trkpt lat="43.47311" lon="5.43882">
        <ele>183.967606</ele>
        <time>2011-11-27T10:33:57Z</time>
      </trkpt>
      <trkpt lat="43.47312" lon="5.43877">
        <ele>183.96759</ele>
        <time>2011-11-27T10:33:58Z</time>
      </trkpt>
      <trkpt lat="43.47313" lon="5.43871">
        <ele>184.96759</ele>
        <time>2011-11-27T10:33:59Z</time>
      </trkpt>
      <trkpt lat="43.47315" lon="5.43865">
        <ele>184.967575</ele>
        <time>2011-11-27T10:34:00Z</time>
      </trkpt>
      <trkpt lat="43.47316" lon="5.4386">
        <ele>185.96756</ele>
        <time>2011-11-27T10:34:01Z</time>
      </trkpt>
      <trkpt lat="43.47318" lon="5.43854">
        <ele>185.96756</ele>
        <time>2011-11-27T10:34:02Z</time>
      </trkpt>
      <trkpt lat="43.47319" lon="5.43848">
        <ele>185.967545</ele>
        <time>2011-11-27T10:34:03Z</time>
      </trkpt>
      <trkpt lat="43.4732" lon="5.43842">
        <ele>186.967529</ele>
        <time>2011-11-27T10:34:04Z</time>
      </trkpt>
      <trkpt lat="43.47321" lon="5.43836">
        <ele>186.967529</ele>
        <time>2011-11-27T10:34:05Z</time>
      </trkpt>
      <trkpt lat="43.47321" lon="5.4383">
        <ele>187.967514</ele>
        <time>2011-11-27T10:34:06Z</time>
      </trkpt>
      <trkpt lat="43.47322" lon="5.43825">
        <ele>188.967499</ele>
        <time>2011-11-27T10:34:07Z</time>
      </trkpt>
      <trkpt lat="43.47323" lon="5.43819">
        <ele>189.967484</ele>
        <time>2011-11-27T10:34:08Z</time>
      </trkpt>
      <trkpt lat="43.47323" lon="5.43814">
        <ele>189.967468</ele>
        <time>2011-11-27T10:34:09Z</time>
      </trkpt>
      <trkpt lat="43.47323" lon="5.43809">
        <ele>190.967468</ele>
        <time>2011-11-27T10:34:10Z</time>
      </trkpt>
      <trkpt lat="43.47323" lon="5.43805">
        <ele>190.967453</ele>
        <time>2011-11-27T10:34:11Z</time>
      </trkpt>
      <trkpt lat="43.47323" lon="5.438">
        <ele>191.967438</ele>
        <time>2011-11-27T10:34:12Z</time>
      </trkpt>
      <trkpt lat="43.47323" lon="5.43795">
        <ele>192.967438</ele>
        <time>2011-11-27T10:34:13Z</time>
      </trkpt>
      <trkpt lat="43.47324" lon="5.4379">
        <ele>193.967422</ele>
        <time>2011-11-27T10:34:14Z</time>
      </trkpt>
      <trkpt lat="43.47325" lon="5.43784">
        <ele>193.967407</ele>
        <time>2011-11-27T10:34:15Z</time>
      </trkpt>
      <trkpt lat="43.47326" lon="5.43778">
        <ele>194.967407</ele>
        <time>2011-11-27T10:34:16Z</time>
      </trkpt>
      <trkpt lat="43.47327" lon="5.43773">
        <ele>194.967392</ele>
        <time>2011-11-27T10:34:17Z</time>
      </trkpt>
      <trkpt lat="43.47328" lon="5.43767">
        <ele>195.967377</ele>
        <time>2011-11-27T10:34:18Z</time>
      </trkpt>
      <trkpt lat="43.47329" lon="5.43761">
        <ele>195.967377</ele>
        <time>2011-11-27T10:34:19Z</time>
      </trkpt>
      <trkpt lat="43.4733" lon="5.43756">
        <ele>195.967361</ele>
        <time>2011-11-27T10:34:20Z</time>
      </trkpt>
      <trkpt lat="43.47333" lon="5.43749">
        <ele>196.967346</ele>
        <time>2011-11-27T10:34:21Z</time>
      </trkpt>
      <trkpt lat="43.47336" lon="5.43743">
        <ele>196.967346</ele>
        <time>2011-11-27T10:34:22Z</time>
      </trkpt>
      <trkpt lat="43.47339" lon="5.43735">
        <ele>197.967331</ele>
        <time>2011-11-27T10:34:23Z</time>
      </trkpt>
      <trkpt lat="43.47342" lon="5.43728">
        <ele>197.967316</ele>
        <time>2011-11-27T10:34:24Z</time>
      </trkpt>
      <trkpt lat="43.47346" lon="5.43721">
        <ele>197.967316</ele>
        <time>2011-11-27T10:34:25Z</time>
      </trkpt>
      <trkpt lat="43.47347" lon="5.43716">
        <ele>197.967316</ele>
        <time>2011-11-27T10:34:26Z</time>
      </trkpt>
      <trkpt lat="43.47351" lon="5.43708">
        <ele>197.9673</ele>
        <time>2011-11-27T10:34:27Z</time>
      </trkpt>
      <trkpt lat="43.47355" lon="5.437">
        <ele>198.967285</ele>
        <time>2011-11-27T10:34:28Z</time>
      </trkpt>
      <trkpt lat="43.47359" lon="5.43692">
        <ele>198.967285</ele>
        <time>2011-11-27T10:34:29Z</time>
      </trkpt>
      <trkpt lat="43.47362" lon="5.43684">
        <ele>198.96727</ele>
        <time>2011-11-27T10:34:30Z</time>
      </trkpt>
      <trkpt lat="43.47366" lon="5.43677">
        <ele>198.967255</ele>
        <time>2011-11-27T10:34:31Z</time>
      </trkpt>
      <trkpt lat="43.47369" lon="5.4367">
        <ele>198.967255</ele>
        <time>2011-11-27T10:34:32Z</time>
      </trkpt>
      <trkpt lat="43.47373" lon="5.43663">
        <ele>199.967255</ele>
        <time>2011-11-27T10:34:33Z</time>
      </trkpt>
      <trkpt lat="43.47377" lon="5.43656">
        <ele>199.967239</ele>
        <time>2011-11-27T10:34:34Z</time>
      </trkpt>
      <trkpt lat="43.47381" lon="5.4365">
        <ele>200.967239</ele>
        <time>2011-11-27T10:34:35Z</time>
      </trkpt>
      <trkpt lat="43.47384" lon="5.43644">
        <ele>200.967224</ele>
        <time>2011-11-27T10:34:36Z</time>
      </trkpt>
      <trkpt lat="43.47387" lon="5.43638">
        <ele>201.967224</ele>
        <time>2011-11-27T10:34:37Z</time>
      </trkpt>
      <trkpt lat="43.4739" lon="5.43633">
        <ele>201.967224</ele>
        <time>2011-11-27T10:34:38Z</time>
      </trkpt>
      <trkpt lat="43.47393" lon="5.43627">
        <ele>202.967209</ele>
        <time>2011-11-27T10:34:39Z</time>
      </trkpt>
      <trkpt lat="43.47396" lon="5.43621">
        <ele>202.967194</ele>
        <time>2011-11-27T10:34:40Z</time>
      </trkpt>
      <trkpt lat="43.47399" lon="5.43615">
        <ele>203.967194</ele>
        <time>2011-11-27T10:34:41Z</time>
      </trkpt>
      <trkpt lat="43.47402" lon="5.4361">
        <ele>203.967194</ele>
        <time>2011-11-27T10:34:42Z</time>
      </trkpt>
      <trkpt lat="43.47404" lon="5.43604">
        <ele>203.967194</ele>
        <time>2011-11-27T10:34:43Z</time>
      </trkpt>
      <trkpt lat="43.47407" lon="5.436">
        <ele>204.967178</ele>
        <time>2011-11-27T10:34:44Z</time>
      </trkpt>
      <trkpt lat="43.47409" lon="5.43595">
        <ele>205.967178</ele>
        <time>2011-11-27T10:34:45Z</time>
      </trkpt>
      <trkpt lat="43.47411" lon="5.4359">
        <ele>205.967163</ele>
        <time>2011-11-27T10:34:46Z</time>
      </trkpt>
      <trkpt lat="43.47413" lon="5.43586">
        <ele>205.967163</ele>
        <time>2011-11-27T10:34:47Z</time>
      </trkpt>
      <trkpt lat="43.47414" lon="5.4358">
        <ele>206.967163</ele>
        <time>2011-11-27T10:34:48Z</time>
      </trkpt>
      <trkpt lat="43.47415" lon="5.43575">
        <ele>206.967148</ele>
        <time>2011-11-27T10:34:49Z</time>
      </trkpt>
      <trkpt lat="43.47416" lon="5.4357">
        <ele>206.967133</ele>
        <time>2011-11-27T10:34:50Z</time>
      </trkpt>
      <trkpt lat="43.47417" lon="5.43566">
        <ele>206.967133</ele>
        <time>2011-11-27T10:34:51Z</time>
      </trkpt>
      <trkpt lat="43.47417" lon="5.43564">
        <ele>206.967133</ele>
        <time>2011-11-27T10:34:52Z</time>
      </trkpt>
      <trkpt lat="43.47438" lon="5.43534">
        <ele>208.967102</ele>
        <time>2011-11-27T10:35:00Z</time>
      </trkpt>
      <trkpt lat="43.47442" lon="5.43524">
        <ele>209.967102</ele>
        <time>2011-11-27T10:35:01Z</time>
      </trkpt>
      <trkpt lat="43.47445" lon="5.43514">
        <ele>209.967072</ele>
        <time>2011-11-27T10:35:02Z</time>
      </trkpt>
      <trkpt lat="43.47448" lon="5.43504">
        <ele>210.967056</ele>
        <time>2011-11-27T10:35:03Z</time>
      </trkpt>
      <trkpt lat="43.47452" lon="5.43492">
        <ele>211.967041</ele>
        <time>2011-11-27T10:35:04Z</time>
      </trkpt>
      <trkpt lat="43.47456" lon="5.43479">
        <ele>211.967026</ele>
        <time>2011-11-27T10:35:05Z</time>
      </trkpt>
      <trkpt lat="43.47461" lon="5.43464">
        <ele>212.96701</ele>
        <time>2011-11-27T10:35:06Z</time>
      </trkpt>
      <trkpt lat="43.47467" lon="5.43451">
        <ele>213.96698</ele>
        <time>2011-11-27T10:35:07Z</time>
      </trkpt>
      <trkpt lat="43.47472" lon="5.43436">
        <ele>214.966949</ele>
        <time>2011-11-27T10:35:08Z</time>
      </trkpt>
      <trkpt lat="43.47476" lon="5.43422">
        <ele>215.966949</ele>
        <time>2011-11-27T10:35:09Z</time>
      </trkpt>
      <trkpt lat="43.47481" lon="5.43409">
        <ele>215.966919</ele>
        <time>2011-11-27T10:35:10Z</time>
      </trkpt>
      <trkpt lat="43.47485" lon="5.43399">
        <ele>216.966904</ele>
        <time>2011-11-27T10:35:11Z</time>
      </trkpt>
      <trkpt lat="43.47488" lon="5.43388">
        <ele>216.966888</ele>
        <time>2011-11-27T10:35:12Z</time>
      </trkpt>
      <trkpt lat="43.47492" lon="5.43379">
        <ele>217.966873</ele>
        <time>2011-11-27T10:35:13Z</time>
      </trkpt>
      <trkpt lat="43.47494" lon="5.43369">
        <ele>217.966858</ele>
        <time>2011-11-27T10:35:14Z</time>
      </trkpt>
      <trkpt lat="43.47496" lon="5.43359">
        <ele>217.966843</ele>
        <time>2011-11-27T10:35:15Z</time>
      </trkpt>
      <trkpt lat="43.47496" lon="5.4335">
        <ele>218.966827</ele>
        <time>2011-11-27T10:35:16Z</time>
      </trkpt>
      <trkpt lat="43.47496" lon="5.4334">
        <ele>218.966797</ele>
        <time>2011-11-27T10:35:17Z</time>
      </trkpt>
      <trkpt lat="43.47497" lon="5.43331">
        <ele>218.966782</ele>
        <time>2011-11-27T10:35:18Z</time>
      </trkpt>
      <trkpt lat="43.47497" lon="5.43323">
        <ele>218.966766</ele>
        <time>2011-11-27T10:35:19Z</time>
      </trkpt>
      <trkpt lat="43.47499" lon="5.43314">
        <ele>219.966736</ele>
        <time>2011-11-27T10:35:20Z</time>
      </trkpt>
      <trkpt lat="43.475" lon="5.43305">
        <ele>219.966736</ele>
        <time>2011-11-27T10:35:21Z</time>
      </trkpt>
      <trkpt lat="43.47502" lon="5.43297">
        <ele>219.966705</ele>
        <time>2011-11-27T10:35:22Z</time>
      </trkpt>
      <trkpt lat="43.47503" lon="5.43292">
        <ele>219.966705</ele>
        <time>2011-11-27T10:35:23Z</time>
      </trkpt>
      <trkpt lat="43.47504" lon="5.43284">
        <ele>220.96669</ele>
        <time>2011-11-27T10:35:24Z</time>
      </trkpt>
      <trkpt lat="43.47505" lon="5.43277">
        <ele>220.966675</ele>
        <time>2011-11-27T10:35:25Z</time>
      </trkpt>
      <trkpt lat="43.47506" lon="5.43271">
        <ele>220.96666</ele>
        <time>2011-11-27T10:35:26Z</time>
      </trkpt>
      <trkpt lat="43.47507" lon="5.43266">
        <ele>221.96666</ele>
        <time>2011-11-27T10:35:27Z</time>
      </trkpt>
      <trkpt lat="43.47509" lon="5.43264">
        <ele>221.96666</ele>
        <time>2011-11-27T10:35:28Z</time>
      </trkpt>
      <trkpt lat="43.47511" lon="5.43261">
        <ele>222.966644</ele>
        <time>2011-11-27T10:35:29Z</time>
      </trkpt>
      <trkpt lat="43.47513" lon="5.43258">
        <ele>223.966644</ele>
        <time>2011-11-27T10:35:30Z</time>
      </trkpt>
      <trkpt lat="43.47514" lon="5.43255">
        <ele>224.966644</ele>
        <time>2011-11-27T10:35:31Z</time>
      </trkpt>
      <trkpt lat="43.47516" lon="5.43253">
        <ele>224.966644</ele>
        <time>2011-11-27T10:35:32Z</time>
      </trkpt>
      <trkpt lat="43.47518" lon="5.4325">
        <ele>225.966644</ele>
        <time>2011-11-27T10:35:33Z</time>
      </trkpt>
      <trkpt lat="43.47519" lon="5.43247">
        <ele>225.966644</ele>
        <time>2011-11-27T10:35:34Z</time>
      </trkpt>
      <trkpt lat="43.4752" lon="5.43246">
        <ele>225.966644</ele>
        <time>2011-11-27T10:35:35Z</time>
      </trkpt>
      <trkpt lat="43.47547" lon="5.43226">
        <ele>225.96666</ele>
        <time>2011-11-27T10:35:53Z</time>
      </trkpt>
      <trkpt lat="43.47573" lon="5.43209">
        <ele>223.966675</ele>
        <time>2011-11-27T10:36:03Z</time>
      </trkpt>
      <trkpt lat="43.47584" lon="5.43207">
        <ele>223.966705</ele>
        <time>2011-11-27T10:36:06Z</time>
      </trkpt>
      <trkpt lat="43.47613" lon="5.43209">
        <ele>222.966766</ele>
        <time>2011-11-27T10:36:22Z</time>
      </trkpt>
      <trkpt lat="43.4763" lon="5.43213">
        <ele>224.966812</ele>
        <time>2011-11-27T10:36:29Z</time>
      </trkpt>
      <trkpt lat="43.47639" lon="5.43215">
        <ele>224.966843</ele>
        <time>2011-11-27T10:36:35Z</time>
      </trkpt>
      <trkpt lat="43.47675" lon="5.43228">
        <ele>226.966949</ele>
        <time>2011-11-27T10:37:04Z</time>
      </trkpt>
      <trkpt lat="43.47703" lon="5.43228">
        <ele>230.96701</ele>
        <time>2011-11-27T10:37:26Z</time>
      </trkpt>
      <trkpt lat="43.4773" lon="5.4323">
        <ele>232.967087</ele>
        <time>2011-11-27T10:37:49Z</time>
      </trkpt>
      <trkpt lat="43.48933" lon="5.4332">
        <ele>203.970032</ele>
        <time>2011-11-27T10:47:12Z</time>
      </trkpt>
    </trkseg>
  </trk>
</gpx>